createdAt,value
2022-08-03T00:02:19.365Z,18.25
2022-08-03T00:04:52.715Z,18.20
2022-08-03T00:07:20.386Z,18.21
2022-08-03T00:09:48.193Z,18.19
2022-08-03T00:12:16.406Z,18.14
2022-08-03T00:14:44.254Z,18.10
2022-08-03T00:17:11.866Z,18.07
2022-08-03T00:19:39.483Z,18.04
2022-08-03T00:22:07.352Z,18.09
2022-08-03T00:24:36.417Z,18.05
2022-08-03T00:27:04.216Z,18.07
2022-08-03T00:29:31.744Z,17.94
2022-08-03T00:32:00.117Z,17.94
2022-08-03T00:34:36.206Z,17.98
2022-08-03T00:37:10.916Z,17.90
2022-08-03T00:39:38.540Z,17.91
2022-08-03T00:42:06.979Z,17.93
2022-08-03T00:44:41.026Z,17.92
2022-08-03T00:47:10.440Z,17.93
2022-08-03T00:49:41.498Z,17.98
2022-08-03T00:52:10.681Z,18.03
2022-08-03T00:54:39.070Z,17.92
2022-08-03T00:57:07.887Z,17.92
2022-08-03T00:59:37.020Z,17.91
2022-08-03T01:02:04.550Z,17.89
2022-08-03T01:04:31.964Z,17.94
2022-08-03T01:07:27.994Z,17.90
2022-08-03T01:09:55.803Z,17.90
2022-08-03T01:12:48.803Z,17.86
2022-08-03T01:15:43.545Z,17.75
2022-08-03T01:18:43.424Z,17.76
2022-08-03T01:21:21.705Z,17.81
2022-08-03T01:23:54.156Z,17.76
2022-08-03T01:26:21.834Z,17.71
2022-08-03T01:29:15.934Z,17.77
2022-08-03T01:33:02.686Z,17.70
2022-08-03T01:35:06.686Z,17.73
2022-08-03T01:37:48.958Z,17.70
2022-08-03T01:40:19.532Z,17.70
2022-08-03T01:42:49.595Z,17.75
2022-08-03T01:45:18.802Z,17.77
2022-08-03T01:47:48.506Z,17.74
2022-08-03T01:50:21.111Z,17.73
2022-08-03T01:52:49.313Z,17.75
2022-08-03T01:55:20.386Z,17.75
2022-08-03T01:58:05.936Z,17.77
2022-08-03T02:00:38.747Z,17.73
2022-08-03T02:03:08.629Z,17.72
2022-08-03T02:05:39.120Z,17.75
2022-08-03T02:08:10.675Z,17.81
2022-08-03T02:10:42.338Z,17.76
2022-08-03T02:13:11.117Z,17.70
2022-08-03T02:15:41.400Z,17.64
2022-08-03T02:18:11.617Z,17.63
2022-08-03T02:20:42.024Z,17.66
2022-08-03T02:23:10.447Z,17.63
2022-08-03T02:25:45.483Z,17.56
2022-08-03T02:28:19.489Z,17.52
2022-08-03T02:30:53.923Z,17.54
2022-08-03T02:33:43.341Z,17.59
2022-08-03T02:36:13.470Z,17.63
2022-08-03T02:38:43.862Z,17.63
2022-08-03T02:41:18.251Z,17.64
2022-08-03T02:44:05.367Z,17.68
2022-08-03T02:46:39.114Z,17.65
2022-08-03T02:49:40.899Z,17.65
2022-08-03T02:51:59.079Z,17.71
2022-08-03T02:54:28.273Z,17.69
2022-08-03T02:56:58.723Z,17.76
2022-08-03T02:59:27.924Z,17.73
2022-08-03T03:01:55.820Z,17.71
2022-08-03T03:04:25.728Z,17.68
2022-08-03T03:07:01.810Z,17.79
2022-08-03T03:09:40.462Z,17.84
2022-08-03T03:12:11.473Z,17.79
2022-08-03T03:14:39.927Z,17.78
2022-08-03T03:17:08.909Z,17.75
2022-08-03T03:19:39.860Z,17.69
2022-08-03T03:22:08.668Z,17.65
2022-08-03T03:24:36.593Z,17.61
2022-08-03T03:27:04.469Z,17.46
2022-08-03T03:29:39.491Z,17.45
2022-08-03T03:32:08.332Z,17.41
2022-08-03T03:34:37.328Z,17.42
2022-08-03T03:37:05.987Z,17.49
2022-08-03T03:39:33.767Z,17.56
2022-08-03T03:42:01.421Z,17.63
2022-08-03T03:44:29.761Z,17.61
2022-08-03T03:47:00.261Z,17.69
2022-08-03T03:49:28.051Z,17.65
2022-08-03T03:51:55.910Z,17.65
2022-08-03T03:54:25.486Z,17.72
2022-08-03T03:56:56.958Z,17.80
2022-08-03T03:59:24.821Z,17.76
2022-08-03T04:01:59.142Z,17.85
2022-08-03T04:04:45.082Z,17.91
2022-08-03T04:07:31.489Z,17.96
2022-08-03T04:10:20.557Z,17.98
2022-08-03T04:12:51.250Z,18.04
2022-08-03T04:15:24.162Z,18.07
2022-08-03T04:17:56.054Z,18.11
2022-08-03T04:20:32.673Z,18.12
2022-08-03T04:23:01.812Z,18.15
2022-08-03T04:25:32.971Z,18.12
2022-08-03T04:28:19.701Z,18.18
2022-08-03T04:30:52.550Z,18.22
2022-08-03T04:33:21.450Z,18.26
2022-08-03T04:36:01.741Z,18.24
2022-08-03T04:38:36.836Z,18.24
2022-08-03T04:41:06.086Z,18.13
2022-08-03T04:43:34.304Z,18.14
2022-08-03T04:46:02.951Z,18.08
2022-08-03T04:48:30.811Z,18.10
2022-08-03T04:51:00.876Z,18.11
2022-08-03T04:53:28.786Z,18.03
2022-08-03T04:55:56.270Z,18.04
2022-08-03T04:58:29.068Z,18.05
2022-08-03T05:00:56.552Z,18.03
2022-08-03T05:03:25.207Z,18.08
2022-08-03T05:06:09.782Z,18.16
2022-08-03T05:08:46.047Z,18.20
2022-08-03T05:11:16.500Z,18.15
2022-08-03T05:13:46.537Z,18.20
2022-08-03T05:16:14.794Z,18.33
2022-08-03T05:18:43.369Z,18.39
2022-08-03T05:21:12.513Z,18.42
2022-08-03T05:23:41.472Z,18.46
2022-08-03T05:26:09.135Z,18.47
2022-08-03T05:28:36.813Z,18.47
2022-08-03T05:31:04.400Z,18.52
2022-08-03T05:33:31.881Z,18.57
2022-08-03T05:36:03.563Z,18.53
2022-08-03T05:38:35.004Z,18.62
2022-08-03T05:41:21.021Z,18.82
2022-08-03T05:43:55.137Z,19.14
2022-08-03T05:46:23.381Z,19.10
2022-08-03T05:48:51.286Z,19.08
2022-08-03T05:51:18.857Z,18.99
2022-08-03T05:53:46.428Z,18.85
2022-08-03T05:56:16.285Z,18.66
2022-08-03T05:58:46.108Z,18.70
2022-08-03T06:01:14.869Z,19.06
2022-08-03T06:03:42.731Z,19.76
2022-08-03T06:06:11.697Z,19.76
2022-08-03T06:08:41.140Z,19.58
2022-08-03T06:11:09.018Z,19.47
2022-08-03T06:13:37.223Z,19.34
2022-08-03T06:16:05.491Z,19.33
2022-08-03T06:18:33.358Z,19.19
2022-08-03T06:21:14.390Z,19.07
2022-08-03T06:23:52.595Z,18.99
2022-08-03T06:26:21.811Z,18.92
2022-08-03T06:28:52.598Z,19.02
2022-08-03T06:31:33.348Z,19.07
2022-08-03T06:34:32.396Z,19.22
2022-08-03T06:36:52.400Z,19.87
2022-08-03T06:39:23.567Z,20.37
2022-08-03T06:41:53.548Z,20.69
2022-08-03T06:44:21.316Z,20.34
2022-08-03T06:46:49.030Z,20.02
2022-08-03T06:49:17.171Z,20.11
2022-08-03T06:52:04.908Z,19.98
2022-08-03T06:54:33.207Z,19.85
2022-08-03T06:57:01.337Z,19.77
2022-08-03T07:00:07.919Z,19.81
2022-08-03T07:02:19.868Z,20.02
2022-08-03T07:04:48.687Z,20.18
2022-08-03T07:07:17.492Z,20.43
2022-08-03T07:09:56.753Z,20.51
2022-08-03T07:12:27.536Z,20.56
2022-08-03T07:15:00.272Z,20.61
2022-08-03T07:17:32.398Z,20.39
2022-08-03T07:20:03.233Z,20.33
2022-08-03T07:22:30.989Z,20.55
2022-08-03T07:24:59.290Z,20.33
2022-08-03T07:27:28.705Z,20.39
2022-08-03T07:29:58.808Z,20.69
2022-08-03T07:32:27.147Z,20.97
2022-08-03T07:34:58.439Z,21.72
2022-08-03T07:37:28.932Z,24.49
2022-08-03T07:39:57.227Z,24.76
2022-08-03T07:42:24.866Z,23.94
2022-08-03T07:44:52.574Z,24.21
2022-08-03T07:47:23.448Z,24.11
2022-08-03T07:49:51.948Z,23.90
2022-08-03T07:52:38.376Z,23.99
2022-08-03T07:55:07.070Z,23.17
2022-08-03T07:57:35.392Z,23.79
2022-08-03T08:00:06.950Z,25.30
2022-08-03T08:02:35.083Z,24.88
2022-08-03T08:05:05.747Z,24.06
2022-08-03T08:07:34.338Z,24.94
2022-08-03T08:10:02.765Z,25.17
2022-08-03T08:12:30.378Z,25.22
2022-08-03T08:14:57.945Z,24.94
2022-08-03T08:17:25.472Z,24.12
2022-08-03T08:19:57.946Z,24.17
2022-08-03T08:22:29.881Z,24.14
2022-08-03T08:24:59.570Z,24.33
2022-08-03T08:28:30.124Z,24.03
2022-08-03T08:30:19.637Z,23.51
2022-08-03T08:32:48.822Z,23.36
2022-08-03T08:35:17.901Z,22.93
2022-08-03T08:37:50.893Z,22.83
2022-08-03T08:40:22.997Z,22.69
2022-08-03T08:42:58.466Z,22.48
2022-08-03T08:45:27.765Z,22.42
2022-08-03T08:48:01.639Z,22.48
2022-08-03T08:50:31.971Z,22.48
2022-08-03T08:53:02.025Z,22.42
2022-08-03T08:55:30.653Z,22.62
2022-08-03T08:58:20.917Z,22.86
2022-08-03T09:00:49.488Z,22.95
2022-08-03T09:03:22.671Z,22.77
2022-08-03T09:05:59.724Z,22.74
2022-08-03T09:08:28.546Z,23.04
2022-08-03T09:10:56.135Z,23.27
2022-08-03T09:13:24.295Z,23.40
2022-08-03T09:16:24.632Z,23.03
2022-08-03T09:18:54.313Z,23.07
2022-08-03T09:21:34.781Z,23.26
2022-08-03T09:24:08.423Z,23.18
2022-08-03T09:26:52.118Z,23.04
2022-08-03T09:29:22.894Z,22.78
2022-08-03T09:32:00.829Z,22.77
2022-08-03T09:34:28.835Z,22.72
2022-08-03T09:36:58.394Z,22.80
2022-08-03T09:39:41.391Z,22.83
2022-08-03T09:42:11.186Z,22.84
2022-08-03T09:44:47.763Z,22.77
2022-08-03T09:47:28.389Z,22.67
2022-08-03T09:50:07.271Z,22.63
2022-08-03T09:52:51.929Z,22.60
2022-08-03T09:56:04.996Z,22.50
2022-08-03T09:58:11.663Z,22.40
2022-08-03T10:01:01.923Z,22.31
2022-08-03T10:03:36.600Z,22.26
2022-08-03T10:06:28.869Z,22.26
2022-08-03T10:09:15.015Z,22.23
2022-08-03T10:11:44.328Z,22.24
2022-08-03T10:14:19.627Z,22.21
2022-08-03T10:16:48.418Z,22.22
2022-08-03T10:19:16.530Z,22.21
2022-08-03T10:21:51.470Z,22.21
2022-08-03T10:24:26.182Z,22.26
2022-08-03T10:27:01.535Z,22.27
2022-08-03T10:29:32.351Z,22.31
2022-08-03T10:32:04.428Z,22.32
2022-08-03T10:34:40.321Z,22.32
2022-08-03T10:37:15.430Z,22.33
2022-08-03T10:39:54.236Z,22.37
2022-08-03T10:42:24.748Z,22.39
2022-08-03T10:45:13.165Z,22.39
2022-08-03T10:47:41.265Z,22.41
2022-08-03T10:50:10.109Z,22.40
2022-08-03T10:53:06.690Z,22.42
2022-08-03T10:55:53.871Z,22.52
2022-08-03T10:58:37.073Z,22.46
2022-08-03T11:01:06.231Z,22.45
2022-08-03T11:03:48.920Z,22.52
2022-08-03T11:06:27.237Z,22.69
2022-08-03T11:09:11.218Z,22.87
2022-08-03T11:11:43.714Z,22.99
2022-08-03T11:14:14.721Z,23.07
2022-08-03T11:17:06.172Z,23.13
2022-08-03T11:19:56.575Z,23.24
2022-08-03T11:22:46.098Z,23.34
2022-08-03T11:25:54.156Z,23.38
2022-08-03T11:28:25.296Z,23.36
2022-08-03T11:30:53.014Z,23.32
2022-08-03T11:33:31.160Z,23.29
2022-08-03T11:36:01.399Z,23.30
2022-08-03T11:38:28.955Z,23.26
2022-08-03T11:40:56.547Z,23.22
2022-08-03T11:43:31.256Z,23.26
2022-08-03T11:46:07.872Z,23.36
2022-08-03T11:48:47.458Z,23.30
2022-08-03T11:51:26.170Z,23.36
2022-08-03T11:53:53.596Z,23.49
2022-08-03T11:56:21.297Z,23.68
2022-08-03T11:59:19.366Z,23.85
2022-08-03T12:01:46.104Z,23.89
2022-08-03T12:04:13.606Z,23.85
2022-08-03T12:06:56.005Z,23.86
2022-08-03T12:09:23.780Z,23.88
2022-08-03T12:11:59.581Z,23.91
2022-08-03T12:14:49.089Z,23.88
2022-08-03T12:17:17.783Z,23.94
2022-08-03T12:19:46.395Z,23.99
2022-08-03T12:22:14.647Z,23.95
2022-08-03T12:24:43.270Z,23.95
2022-08-03T12:27:10.982Z,23.95
2022-08-03T12:29:39.652Z,23.93
2022-08-03T12:32:07.269Z,23.95
2022-08-03T12:34:50.746Z,23.95
2022-08-03T12:37:23.544Z,23.88
2022-08-03T12:40:10.206Z,23.88
2022-08-03T12:42:39.718Z,23.94
2022-08-03T12:45:24.319Z,24.00
2022-08-03T12:48:13.201Z,24.01
2022-08-03T12:50:41.368Z,24.06
2022-08-03T12:53:10.357Z,24.07
2022-08-03T12:55:57.311Z,24.08
2022-08-03T12:58:34.905Z,24.08
2022-08-03T13:01:10.085Z,24.01
2022-08-03T13:03:49.789Z,24.01
2022-08-03T13:06:23.739Z,23.98
2022-08-03T13:09:03.784Z,23.89
2022-08-03T13:11:57.982Z,23.93
2022-08-03T13:14:20.210Z,24.02
2022-08-03T13:16:50.808Z,24.01
2022-08-03T13:19:25.530Z,23.95
2022-08-03T13:22:04.313Z,23.89
2022-08-03T13:24:33.268Z,23.86
2022-08-03T13:28:02.255Z,23.89
2022-08-03T13:29:59.170Z,23.86
2022-08-03T13:32:26.847Z,23.94
2022-08-03T13:34:54.629Z,23.95
2022-08-03T13:37:22.571Z,23.90
2022-08-03T13:39:59.246Z,23.81
2022-08-03T13:42:30.511Z,23.80
2022-08-03T13:44:59.370Z,23.85
2022-08-03T13:47:27.448Z,23.86
2022-08-03T13:50:01.485Z,23.88
2022-08-03T13:52:31.648Z,23.95
2022-08-03T13:55:00.204Z,23.91
2022-08-03T13:58:02.973Z,24.02
2022-08-03T14:00:26.632Z,23.92
2022-08-03T14:03:03.804Z,23.83
2022-08-03T14:05:33.912Z,23.93
2022-08-03T14:08:04.367Z,23.90
2022-08-03T14:10:34.651Z,23.97
2022-08-03T14:13:03.168Z,23.92
2022-08-03T14:15:31.464Z,23.90
2022-08-03T14:17:59.280Z,23.93
2022-08-03T14:20:38.071Z,23.85
2022-08-03T14:23:15.385Z,23.90
2022-08-03T14:25:50.218Z,23.90
2022-08-03T14:28:21.344Z,23.89
2022-08-03T14:30:49.158Z,23.89
2022-08-03T14:33:16.954Z,23.98
2022-08-03T14:35:44.847Z,24.04
2022-08-03T14:38:12.491Z,23.95
2022-08-03T14:40:43.494Z,24.02
2022-08-03T14:43:11.387Z,23.96
2022-08-03T14:45:39.861Z,23.94
2022-08-03T14:50:33.884Z,23.89
2022-08-03T14:50:56.827Z,23.78
2022-08-03T14:53:24.609Z,23.68
2022-08-03T14:55:53.478Z,23.61
2022-08-03T14:58:22.168Z,23.56
2022-08-03T15:00:51.375Z,23.46
2022-08-03T15:03:23.412Z,23.39
2022-08-03T15:05:56.750Z,23.36
2022-08-03T15:08:25.868Z,23.33
2022-08-03T15:10:54.854Z,23.29
2022-08-03T15:13:22.844Z,23.24
2022-08-03T15:15:51.877Z,23.21
2022-08-03T15:18:20.359Z,23.24
2022-08-03T15:20:50.534Z,23.19
2022-08-03T15:23:18.680Z,23.11
2022-08-03T15:26:28.842Z,23.14
2022-08-03T15:28:34.509Z,23.08
2022-08-03T15:31:06.501Z,23.05
2022-08-03T15:33:35.317Z,23.06
2022-08-03T15:36:04.871Z,23.05
2022-08-03T15:38:32.413Z,23.03
2022-08-03T15:41:00.415Z,23.03
2022-08-03T15:43:28.055Z,23.06
2022-08-03T15:46:26.546Z,23.03
2022-08-03T15:48:43.503Z,23.03
2022-08-03T15:51:11.578Z,23.05
2022-08-03T15:53:39.693Z,23.08
2022-08-03T15:56:12.318Z,23.07
2022-08-03T15:59:04.450Z,23.04
2022-08-03T16:01:30.974Z,23.03
2022-08-03T16:03:58.703Z,23.02
2022-08-03T16:06:29.748Z,22.98
2022-08-03T16:09:23.000Z,22.97
2022-08-03T16:11:53.731Z,22.95
2022-08-03T16:14:34.756Z,22.94
2022-08-03T16:17:05.695Z,22.92
2022-08-03T16:19:34.023Z,22.88
2022-08-03T16:22:03.378Z,22.90
2022-08-03T16:24:31.334Z,22.87
2022-08-03T16:26:59.473Z,22.88
2022-08-03T16:29:29.545Z,22.86
2022-08-03T16:31:57.063Z,22.79
2022-08-03T16:34:24.850Z,22.80
2022-08-03T16:36:52.640Z,22.77
2022-08-03T16:39:20.649Z,22.74
2022-08-03T16:41:54.564Z,22.71
2022-08-03T16:44:30.688Z,22.72
2022-08-03T16:47:00.028Z,22.70
2022-08-03T16:49:55.543Z,22.67
2022-08-03T16:52:16.574Z,22.66
2022-08-03T16:54:50.581Z,22.60
2022-08-03T16:57:58.834Z,22.58
2022-08-03T17:00:12.238Z,22.59
2022-08-03T17:03:04.146Z,22.56
2022-08-03T17:05:32.669Z,22.58
2022-08-03T17:08:15.880Z,22.48
2022-08-03T17:10:45.112Z,22.46
2022-08-03T17:13:21.490Z,22.45
2022-08-03T17:15:57.636Z,22.41
2022-08-03T17:18:36.111Z,22.41
2022-08-03T17:21:05.928Z,22.47
2022-08-03T17:23:48.607Z,22.40
2022-08-03T17:26:21.847Z,22.43
2022-08-03T17:28:57.499Z,22.41
2022-08-03T17:31:31.497Z,22.37
2022-08-03T17:34:04.367Z,22.37
2022-08-03T17:37:02.188Z,22.33
2022-08-03T17:39:41.880Z,22.31
2022-08-03T17:44:58.846Z,22.29
2022-08-03T17:47:42.799Z,22.30
2022-08-03T17:50:24.275Z,22.30
2022-08-03T17:56:40.860Z,22.23
2022-08-03T17:59:50.623Z,22.23
2022-08-03T18:03:16.186Z,22.22
2022-08-03T18:06:10.670Z,22.21
2022-08-03T18:08:38.930Z,22.15
2022-08-03T18:11:14.394Z,22.13
2022-08-03T18:13:53.313Z,22.17
2022-08-03T18:16:34.492Z,22.15
2022-08-03T18:19:09.241Z,22.02
2022-08-03T18:22:02.843Z,22.02
2022-08-03T18:24:26.458Z,22.00
2022-08-03T18:26:55.760Z,22.01
2022-08-03T18:29:27.576Z,21.98
2022-08-03T18:32:02.749Z,21.91
2022-08-03T18:34:34.614Z,21.91
2022-08-03T18:37:07.794Z,21.87
2022-08-03T18:39:50.055Z,21.86
2022-08-03T18:42:20.714Z,21.86
2022-08-03T18:44:57.580Z,21.80
2022-08-03T18:47:50.927Z,21.76
2022-08-03T18:50:36.044Z,21.74
2022-08-03T18:54:03.026Z,21.74
2022-08-03T18:56:26.791Z,21.72
2022-08-03T18:59:02.549Z,21.60
2022-08-03T19:04:35.136Z,21.56
2022-08-03T19:07:07.020Z,21.51
2022-08-03T19:09:52.374Z,21.52
2022-08-03T19:12:33.936Z,21.50
2022-08-03T19:15:12.369Z,21.47
2022-08-03T19:17:43.626Z,21.45
2022-08-03T19:20:25.201Z,21.41
2022-08-03T19:22:55.598Z,21.41
2022-08-03T19:25:34.481Z,21.36
2022-08-03T19:28:08.841Z,21.37
2022-08-03T19:30:40.251Z,21.28
2022-08-03T19:33:14.358Z,21.23
2022-08-03T19:38:32.469Z,21.22
2022-08-03T19:41:03.675Z,21.22
2022-08-03T19:43:53.492Z,21.18
2022-08-03T19:46:30.593Z,21.12
2022-08-03T19:49:15.022Z,21.10
2022-08-03T19:52:01.960Z,21.12
2022-08-03T19:54:45.498Z,21.01
2022-08-03T19:57:24.042Z,20.98
2022-08-03T19:59:53.867Z,20.94
2022-08-03T20:02:26.151Z,20.81
2022-08-03T20:05:00.054Z,20.84
2022-08-03T20:07:30.862Z,20.79
2022-08-03T20:10:05.983Z,20.77
2022-08-03T20:12:39.040Z,20.76
2022-08-03T20:15:09.232Z,20.68
2022-08-03T20:17:55.115Z,20.68
2022-08-03T20:20:27.932Z,20.54
2022-08-03T20:22:58.040Z,20.54
2022-08-03T20:25:38.381Z,20.51
2022-08-03T20:28:14.914Z,20.52
2022-08-03T20:30:47.200Z,20.44
2022-08-03T20:33:18.443Z,20.45
2022-08-03T20:35:49.525Z,20.43
2022-08-03T20:38:19.228Z,20.32
2022-08-03T20:40:48.435Z,20.32
2022-08-03T20:43:17.027Z,20.22
2022-08-03T20:46:00.945Z,20.20
2022-08-03T20:48:37.397Z,20.18
2022-08-03T20:51:06.081Z,20.18
2022-08-03T20:53:59.698Z,20.14
2022-08-03T20:56:35.813Z,20.13
2022-08-03T20:59:07.278Z,20.12
2022-08-03T21:01:44.352Z,20.01
2022-08-03T21:04:13.577Z,20.10
2022-08-03T21:06:56.069Z,20.09
2022-08-03T21:09:33.471Z,20.02
2022-08-03T21:12:12.083Z,20.04
2022-08-03T21:13:02.506Z,21.23
2022-08-03T21:13:04.462Z,22.32
2022-08-03T21:13:04.598Z,22.26
2022-08-03T21:13:09.323Z,21.59
2022-08-03T21:14:51.890Z,20.02
2022-08-03T21:17:39.160Z,20.03
2022-08-03T21:20:10.492Z,20.03
2022-08-03T21:22:42.452Z,19.99
2022-08-03T21:25:10.829Z,19.98
2022-08-03T21:27:38.619Z,19.98
2022-08-03T21:30:10.748Z,19.93
2022-08-03T21:32:42.030Z,19.89
2022-08-03T21:35:10.775Z,19.88
2022-08-03T21:37:42.163Z,19.80
2022-08-03T21:40:14.091Z,19.88
2022-08-03T21:42:45.351Z,19.89
2022-08-03T21:45:17.375Z,19.79
2022-08-03T21:47:45.892Z,19.76
2022-08-03T21:50:13.981Z,19.78
2022-08-03T21:52:45.375Z,19.76
2022-08-03T21:55:18.630Z,19.67
2022-08-03T21:57:53.593Z,19.67
2022-08-03T22:00:23.368Z,19.59
2022-08-03T22:02:55.360Z,19.59
2022-08-03T22:05:28.964Z,19.55
2022-08-03T22:08:13.412Z,19.45
2022-08-03T22:10:44.001Z,19.52
2022-08-03T22:13:14.009Z,19.41
2022-08-03T22:15:41.872Z,19.40
2022-08-03T22:18:09.704Z,19.39
2022-08-03T22:20:37.489Z,19.43
2022-08-03T22:23:06.981Z,19.38
2022-08-03T22:25:39.376Z,19.32
2022-08-03T22:28:10.107Z,19.33
2022-08-03T22:30:39.159Z,19.33
2022-08-03T22:33:11.395Z,19.34
2022-08-03T22:35:47.506Z,19.24
2022-08-03T22:38:18.921Z,19.21
2022-08-03T22:40:51.059Z,19.16
2022-08-03T22:43:27.440Z,19.19
2022-08-03T22:46:09.888Z,19.16
2022-08-03T22:48:41.836Z,19.09
2022-08-03T22:51:10.105Z,19.09
2022-08-03T22:53:38.815Z,19.05
2022-08-03T22:56:06.944Z,19.03
2022-08-03T22:58:34.605Z,19.01
2022-08-03T23:01:06.591Z,18.99
2022-08-03T23:04:00.662Z,18.92
2022-08-03T23:06:27.229Z,18.90
2022-08-03T23:08:55.571Z,18.95
2022-08-03T23:11:24.383Z,18.90
2022-08-03T23:13:54.342Z,18.87
2022-08-03T23:16:29.247Z,18.85
2022-08-03T23:19:00.242Z,18.79
2022-08-03T23:22:00.820Z,18.70
2022-08-03T23:24:33.975Z,18.70
2022-08-03T23:27:04.037Z,18.66
2022-08-03T23:29:35.094Z,18.62
2022-08-03T23:32:04.374Z,18.64
2022-08-03T23:34:51.917Z,18.56
2022-08-03T23:37:20.618Z,18.60
2022-08-03T23:39:49.701Z,18.60
2022-08-03T23:42:19.484Z,18.59
2022-08-03T23:44:53.021Z,18.49
2022-08-03T23:47:20.818Z,18.44
2022-08-03T23:49:49.860Z,18.47
2022-08-03T23:52:43.999Z,18.47
2022-08-03T23:55:30.271Z,18.48
2022-08-03T23:58:19.598Z,18.42
